PWSweather.com
Personal Weather Stations
Station Observations

LlefiĆ BadalonaES

Lat: 41.44, Lon: 2.2175

Elevation: 213.254

Station Type: oregon WMR918

http://www.estacionmeteorologicabadalonallefia.com

Latest ConditionsUpdated 7:53:58 AM GMT+01:01 Friday, Oct 31, 2014
Currently Today's Max Today's Min Today's Average
Temperature 59.7°F15.4°C 64.4°F18.0°C 59.7°F15.4°C 62.0°F16.7°C
Dew Point 56.8°F13.8°C 61.5°F16.4°C 56.8°F13.8°C 59.3°F15.2°C
Winds 3.4 mph NW5.5 kmh NW 6.2 mph NW10.0 kmh NW - 3.4 mph 5.5 kmh
Wind Gusts 7.6 mph12.2 kmh 10.5 mph16.9 kmh - -
Humidity 90% 93% 88% 91%
Pressure 30.23 in1023.7 mb 30.23 in1023.7 mb 30.21 in1023.0 mb -
Hour Temp Dew Point Humidity Winds Wind Gusts Pressure Precip Precip Rate Daily Precip Total
07:53 AM 59.7°F15.4°C 56.8°F13.8°C 90% 3.4 mph NW5.5 kmh NW 7.6 mph12.2 kmh 30.23 in1023.7 mb 0.00 in0.0 mm 0.00 in/hr0.0 mm/hr 0.00 in0.0 mm
07:43 AM 59.7°F15.4°C 56.8°F13.8°C 90% 3.8 mph NW6.1 kmh NW 8.1 mph13.0 kmh 30.21 in1023.0 mb 0.00 in0.0 mm 0.00 in/hr0.0 mm/hr 0.00 in0.0 mm
07:33 AM 59.7°F15.4°C 56.8°F13.8°C 90% 6.2 mph NW10.0 kmh NW 9.9 mph15.9 kmh 30.21 in1023.0 mb 0.00 in0.0 mm 0.00 in/hr0.0 mm/hr 0.00 in0.0 mm
07:24 AM 59.7°F15.4°C 56.8°F13.8°C 90% 2.9 mph NW4.7 kmh NW 7.6 mph12.2 kmh 30.21 in1023.0 mb 0.00 in0.0 mm 0.00 in/hr0.0 mm/hr 0.00 in0.0 mm
07:13 AM 59.7°F15.4°C 56.8°F13.8°C 90% 4.5 mph NW7.2 kmh NW 6.4 mph10.3 kmh 30.21 in1023.0 mb 0.00 in0.0 mm 0.00 in/hr0.0 mm/hr 0.00 in0.0 mm
06:53 AM 59.9°F15.5°C 57.0°F13.9°C 90% 5.8 mph NW9.3 kmh NW 9.9 mph15.9 kmh 30.21 in1023.0 mb 0.00 in0.0 mm 0.00 in/hr0.0 mm/hr 0.00 in0.0 mm
06:44 AM 60.1°F15.6°C 57.4°F14.1°C 91% 5.4 mph NW8.7 kmh NW 8.1 mph13.0 kmh 30.21 in1023.0 mb 0.00 in0.0 mm 0.00 in/hr0.0 mm/hr 0.00 in0.0 mm
06:33 AM 60.1°F15.6°C 57.4°F14.1°C 91% 3.3 mph NW5.3 kmh NW 10.5 mph16.9 kmh 30.21 in1023.0 mb 0.00 in0.0 mm 0.00 in/hr0.0 mm/hr 0.00 in0.0 mm
06:24 AM 60.3°F15.7°C 57.6°F14.2°C 91% 4.2 mph NW6.8 kmh NW 8.1 mph13.0 kmh 30.21 in1023.0 mb 0.00 in0.0 mm 0.00 in/hr0.0 mm/hr 0.00 in0.0 mm
06:13 AM 60.4°F15.8°C 57.8°F14.3°C 91% 4.2 mph NW6.8 kmh NW 8.1 mph13.0 kmh 30.21 in1023.0 mb 0.00 in0.0 mm 0.00 in/hr0.0 mm/hr 0.00 in0.0 mm
06:03 AM 60.6°F15.9°C 58.0°F14.4°C 91% 4.5 mph NW7.2 kmh NW 7.0 mph11.3 kmh 30.21 in1023.0 mb 0.00 in0.0 mm 0.00 in/hr0.0 mm/hr 0.00 in0.0 mm
05:53 AM 60.6°F15.9°C 58.0°F14.4°C 91% 5.4 mph NW8.7 kmh NW 7.6 mph12.2 kmh 30.21 in1023.0 mb 0.00 in0.0 mm 0.00 in/hr0.0 mm/hr 0.00 in0.0 mm
05:43 AM 61.0°F16.1°C 58.3°F14.6°C 91% 4.4 mph NW7.1 kmh NW 7.6 mph12.2 kmh 30.21 in1023.0 mb 0.00 in0.0 mm 0.00 in/hr0.0 mm/hr 0.00 in0.0 mm
05:33 AM 61.0°F16.1°C 58.3°F14.6°C 91% 4.9 mph NW7.9 kmh NW 9.9 mph15.9 kmh 30.21 in1023.0 mb 0.00 in0.0 mm 0.00 in/hr0.0 mm/hr 0.00 in0.0 mm
05:24 AM 61.2°F16.2°C 58.5°F14.7°C 91% 5.4 mph NW8.7 kmh NW 8.1 mph13.0 kmh 30.21 in1023.0 mb 0.00 in0.0 mm 0.00 in/hr0.0 mm/hr 0.00 in0.0 mm
05:13 AM 61.3°F16.3°C 59.0°F15.0°C 92% 3.6 mph NW5.8 kmh NW 5.2 mph8.4 kmh 30.21 in1023.0 mb 0.00 in0.0 mm 0.00 in/hr0.0 mm/hr 0.00 in0.0 mm
05:03 AM 61.3°F16.3°C 59.0°F15.0°C 92% 0.6 mph NW1.0 kmh NW 5.2 mph8.4 kmh 30.21 in1023.0 mb 0.00 in0.0 mm 0.00 in/hr0.0 mm/hr 0.00 in0.0 mm
04:53 AM 61.3°F16.3°C 59.0°F15.0°C 92% Calm Calm 3.5 mph5.6 kmh 30.21 in1023.0 mb 0.00 in0.0 mm 0.00 in/hr0.0 mm/hr 0.00 in0.0 mm
04:44 AM 61.2°F16.2°C 58.8°F14.9°C 92% 3.0 mph NW4.8 kmh NW 4.6 mph7.4 kmh 30.21 in1023.0 mb 0.00 in0.0 mm 0.00 in/hr0.0 mm/hr 0.00 in0.0 mm
04:33 AM 61.2°F16.2°C 58.8°F14.9°C 92% 4.0 mph NW6.4 kmh NW 7.0 mph11.3 kmh 30.21 in1023.0 mb 0.00 in0.0 mm 0.00 in/hr0.0 mm/hr 0.00 in0.0 mm
04:24 AM 61.2°F16.2°C 58.8°F14.9°C 92% 4.3 mph NW6.9 kmh NW 6.4 mph10.3 kmh 30.21 in1023.0 mb 0.00 in0.0 mm 0.00 in/hr0.0 mm/hr 0.00 in0.0 mm
04:13 AM 61.3°F16.3°C 59.0°F15.0°C 92% 3.8 mph NW6.1 kmh NW 5.2 mph8.4 kmh 30.21 in1023.0 mb 0.00 in0.0 mm 0.00 in/hr0.0 mm/hr 0.00 in0.0 mm
04:03 AM 61.5°F16.4°C 59.2°F15.1°C 92% 5.0 mph NW8.0 kmh NW 7.0 mph11.3 kmh 30.21 in1023.0 mb 0.00 in0.0 mm 0.00 in/hr0.0 mm/hr 0.00 in0.0 mm
03:53 AM 61.7°F16.5°C 59.7°F15.4°C 93% 2.2 mph NW3.5 kmh NW 4.6 mph7.4 kmh 30.21 in1023.0 mb 0.00 in0.0 mm 0.00 in/hr0.0 mm/hr 0.00 in0.0 mm
03:43 AM 61.9°F16.6°C 59.5°F15.3°C 92% 3.6 mph NW5.8 kmh NW 5.2 mph8.4 kmh 30.21 in1023.0 mb 0.00 in0.0 mm 0.00 in/hr0.0 mm/hr 0.00 in0.0 mm
03:33 AM 62.1°F16.7°C 59.7°F15.4°C 92% 4.0 mph NW6.4 kmh NW 7.6 mph12.2 kmh 30.21 in1023.0 mb 0.00 in0.0 mm 0.00 in/hr0.0 mm/hr 0.00 in0.0 mm
03:24 AM 62.4°F16.9°C 60.1°F15.6°C 92% 4.3 mph NW6.9 kmh NW 5.2 mph8.4 kmh 30.21 in1023.0 mb 0.00 in0.0 mm 0.00 in/hr0.0 mm/hr 0.00 in0.0 mm
03:14 AM 62.8°F17.1°C 60.4°F15.8°C 92% 3.5 mph NW5.6 kmh NW 5.2 mph8.4 kmh 30.21 in1023.0 mb 0.00 in0.0 mm 0.00 in/hr0.0 mm/hr 0.00 in0.0 mm
03:03 AM 62.8°F17.1°C 60.1°F15.6°C 91% 4.1 mph NW6.6 kmh NW 6.4 mph10.3 kmh 30.21 in1023.0 mb 0.00 in0.0 mm 0.00 in/hr0.0 mm/hr 0.00 in0.0 mm
02:53 AM 63.0°F17.2°C 60.3°F15.7°C 91% 2.6 mph NW4.2 kmh NW 7.6 mph12.2 kmh 30.21 in1023.0 mb 0.00 in0.0 mm 0.00 in/hr0.0 mm/hr 0.00 in0.0 mm
02:43 AM 63.1°F17.3°C 60.5°F15.8°C 91% 4.4 mph NW7.1 kmh NW 7.6 mph12.2 kmh 30.21 in1023.0 mb 0.00 in0.0 mm 0.00 in/hr0.0 mm/hr 0.00 in0.0 mm
02:33 AM 63.5°F17.5°C 60.8°F16.0°C 91% 3.1 mph NW5.0 kmh NW 4.6 mph7.4 kmh 30.21 in1023.0 mb 0.00 in0.0 mm 0.00 in/hr0.0 mm/hr 0.00 in0.0 mm
02:24 AM 63.7°F17.6°C 61.0°F16.1°C 91% 4.0 mph NW6.4 kmh NW 7.0 mph11.3 kmh 30.21 in1023.0 mb 0.00 in0.0 mm 0.00 in/hr0.0 mm/hr 0.00 in0.0 mm
02:13 AM 63.7°F17.6°C 61.0°F16.1°C 91% 3.1 mph NW5.0 kmh NW 4.6 mph7.4 kmh 30.21 in1023.0 mb 0.00 in0.0 mm 0.00 in/hr0.0 mm/hr 0.00 in0.0 mm
02:04 AM 63.7°F17.6°C 61.0°F16.1°C 91% 2.9 mph NW4.7 kmh NW 4.6 mph7.4 kmh 30.21 in1023.0 mb 0.00 in0.0 mm 0.00 in/hr0.0 mm/hr 0.00 in0.0 mm
01:53 AM 63.7°F17.6°C 61.0°F16.1°C 91% 3.3 mph NW5.3 kmh NW 6.4 mph10.3 kmh 30.21 in1023.0 mb 0.00 in0.0 mm 0.00 in/hr0.0 mm/hr 0.00 in0.0 mm
01:43 AM 64.2°F17.9°C 61.5°F16.4°C 91% 0.4 mph NW0.6 kmh NW 4.1 mph6.6 kmh 30.21 in1023.0 mb 0.00 in0.0 mm 0.00 in/hr0.0 mm/hr 0.00 in0.0 mm
01:33 AM 63.9°F17.7°C 61.2°F16.2°C 91% Calm Calm -- 30.21 in1023.0 mb 0.00 in0.0 mm 0.00 in/hr0.0 mm/hr 0.00 in0.0 mm
01:24 AM 63.6°F17.6°C 61.0°F16.1°C 91% Calm Calm -- 30.21 in1023.0 mb 0.00 in0.0 mm 0.00 in/hr0.0 mm/hr 0.00 in0.0 mm
01:13 AM 63.5°F17.5°C 60.8°F16.0°C 91% 2.7 mph NW4.3 kmh NW 5.2 mph8.4 kmh 30.21 in1023.0 mb 0.00 in0.0 mm 0.00 in/hr0.0 mm/hr 0.00 in0.0 mm
01:04 AM 63.7°F17.6°C 61.0°F16.1°C 91% 2.8 mph NW4.5 kmh NW 4.6 mph7.4 kmh 30.21 in1023.0 mb 0.00 in0.0 mm 0.00 in/hr0.0 mm/hr 0.00 in0.0 mm
12:53 AM 63.7°F17.6°C 60.7°F15.9°C 90% 3.0 mph NW4.8 kmh NW 5.2 mph8.4 kmh 30.21 in1023.0 mb 0.00 in0.0 mm 0.00 in/hr0.0 mm/hr 0.00 in0.0 mm
12:43 AM 63.7°F17.6°C 60.7°F15.9°C 90% 2.3 mph NW3.7 kmh NW 5.2 mph8.4 kmh 30.21 in1023.0 mb 0.00 in0.0 mm 0.00 in/hr0.0 mm/hr 0.00 in0.0 mm
12:33 AM 63.9°F17.7°C 60.9°F16.1°C 90% 2.8 mph NW4.5 kmh NW 4.6 mph7.4 kmh 30.21 in1023.0 mb 0.00 in0.0 mm 0.00 in/hr0.0 mm/hr 0.00 in0.0 mm
12:24 AM 63.9°F17.7°C 60.9°F16.1°C 90% 3.1 mph NW5.0 kmh NW 5.2 mph8.4 kmh 30.21 in1023.0 mb 0.00 in0.0 mm 0.00 in/hr0.0 mm/hr 0.00 in0.0 mm
12:13 AM 64.0°F17.8°C 60.7°F15.9°C 89% 2.7 mph NW4.3 kmh NW 5.2 mph8.4 kmh 30.21 in1023.0 mb 0.00 in0.0 mm 0.00 in/hr0.0 mm/hr 0.00 in0.0 mm
12:03 AM 64.4°F18.0°C 60.8°F16.0°C 88% 2.7 mph NW4.3 kmh NW 5.2 mph8.4 kmh 30.21 in1023.0 mb 0.00 in0.0 mm 0.00 in/hr0.0 mm/hr 0.00 in0.0 mm